Time;durP1;ratioP1;P1;durP2;ratioP2;P2;SDS_P1;SDS_P2;PMS_P1;PMS_P2;Temp;Humidity;BMP_temperature;BMP_pressure;BME280_temperature;BME280_humidity;BME280_pressure;Samples;Min_cycle;Max_cycle;Signal;HPM_P1;HPM_P2
2024/01/03 00:00:52;;;;;;;20.42;2.92;;;;;;;;;;5014415;28;20060;-80
2024/01/03 00:03:17;;;;;;;20.00;3.05;;;;;;;;;;5013898;28;20022;-79
2024/01/03 00:05:43;;;;;;;25.52;3.85;;;;;;;;;;5014552;28;20026;-78
2024/01/03 00:08:13;;;;;;;27.05;3.47;;;;;;;;;;5014177;28;20053;-81
2024/01/03 00:10:39;;;;;;;31.45;3.22;;;;;;;;;;5013883;28;20470;-78
2024/01/03 00:13:04;;;;;;;26.70;3.00;;;;;;;;;;5013800;28;20037;-78
2024/01/03 00:15:36;;;;;;;40.88;4.45;;;;;;;;;;5014231;28;20265;-77
2024/01/03 00:18:01;;;;;;;;;;;;;;;;;;5014554;28;20041;-80
2024/01/03 00:20:26;;;;;;;39.72;5.43;;;;;;;;;;5014589;28;19906;-79
2024/01/03 00:22:51;;;;;;;32.23;5.13;;;;;;;;;;5014904;28;20018;-78
2024/01/03 00:25:16;;;;;;;37.10;5.20;;;;;;;;;;5014280;28;20261;-78
2024/01/03 00:27:42;;;;;;;35.10;4.85;;;;;;;;;;5014333;28;20269;-77
2024/01/03 00:30:07;;;;;;;45.70;5.97;;;;;;;;;;5013747;28;20386;-77
2024/01/03 00:32:33;;;;;;;38.45;5.30;;;;;;;;;;5014869;28;20033;-78
2024/01/03 00:34:59;;;;;;;38.85;4.93;;;;;;;;;;5013959;28;20383;-77
2024/01/03 00:37:28;;;;;;;27.98;4.93;;;;;;;;;;5013596;28;20116;-76
2024/01/03 00:39:55;;;;;;;32.10;5.28;;;;;;;;;;5013408;28;20022;-78
2024/01/03 00:42:20;;;;;;;35.10;4.75;;;;;;;;;;5013708;28;20022;-78
2024/01/03 00:44:45;;;;;;;26.65;4.20;;;;;;;;;;5013320;28;20029;-77
2024/01/03 00:47:11;;;;;;;35.38;5.30;;;;;;;;;;5013394;28;20025;-78
2024/01/03 00:49:36;;;;;;;26.98;4.32;;;;;;;;;;5013546;28;20026;-79
2024/01/03 00:52:02;;;;;;;26.42;4.28;;;;;;;;;;5011922;28;20065;-78
2024/01/03 00:54:28;;;;;;;21.33;3.47;;;;;;;;;;5012366;28;20099;-80
2024/01/03 00:56:53;;;;;;;26.08;4.72;;;;;;;;;;5012697;28;20038;-77
2024/01/03 00:59:19;;;;;;;26.85;5.20;;;;;;;;;;5013575;28;20041;-79
2024/01/03 01:01:44;;;;;;;29.80;4.93;;;;;;;;;;5012611;28;20544;-78
2024/01/03 01:04:10;;;;;;;45.65;5.93;;;;;;;;;;5013038;28;20100;-78
2024/01/03 01:06:36;;;;;;;35.58;4.10;;;;;;;;;;5012564;28;20065;-79
2024/01/03 01:09:04;;;;;;;39.25;5.22;;;;;;;;;;5011524;28;20098;-76
2024/01/03 01:11:29;;;;;;;27.27;4.32;;;;;;;;;;5012843;28;20048;-77
2024/01/03 01:13:55;;;;;;;28.40;4.63;;;;;;;;;;5011962;28;20094;-77
2024/01/03 01:16:20;;;;;;;28.17;4.15;;;;;;;;;;5013025;28;20044;-76
2024/01/03 01:18:45;;;;;;;32.00;4.07;;;;;;;;;;5012949;28;20064;-78
2024/01/03 01:21:10;;;;;;;38.77;5.10;;;;;;;;;;5012581;28;20044;-77
2024/01/03 01:23:38;;;;;;;33.00;5.30;;;;;;;;;;5010911;28;20375;-79
2024/01/03 01:26:03;;;;;;;33.50;4.43;;;;;;;;;;5012619;28;20299;-80
2024/01/03 01:28:28;;;;;;;30.27;4.03;;;;;;;;;;5012368;28;20033;-76
2024/01/03 01:30:54;;;;;;;28.35;3.85;;;;;;;;;;5012564;28;20030;-75
2024/01/03 01:33:19;;;;;;;32.93;4.50;;;;;;;;;;5012523;28;20444;-75
2024/01/03 01:35:44;;;;;;;31.50;4.43;;;;;;;;;;5012452;28;20744;-75
2024/01/03 01:38:09;;;;;;;29.10;4.70;;;;;;;;;;5012753;28;20264;-75
2024/01/03 01:40:35;;;;;;;35.00;4.67;;;;;;;;;;5011908;28;20269;-75
2024/01/03 01:43:00;;;;;;;29.00;5.00;;;;;;;;;;5012869;28;20261;-76
2024/01/03 01:45:25;;;;;;;23.23;4.20;;;;;;;;;;5012076;28;20042;-75
2024/01/03 01:47:50;;;;;;;33.70;4.80;;;;;;;;;;5012354;28;20459;-76
2024/01/03 01:50:16;;;;;;;42.38;5.75;;;;;;;;;;5012352;28;20018;-75
2024/01/03 01:52:42;;;;;;;25.90;4.18;;;;;;;;;;5012226;28;20030;-76
2024/01/03 01:55:09;;;;;;;27.50;4.82;;;;;;;;;;5010871;28;20026;-76
2024/01/03 01:57:35;;;;;;;31.65;4.65;;;;;;;;;;5012419;28;20111;-76
2024/01/03 02:00:02;;;;;;;29.10;4.72;;;;;;;;;;5012448;28;20427;-75
2024/01/03 02:02:28;;;;;;;33.60;6.20;;;;;;;;;;5012812;28;20469;-77
2024/01/03 02:04:53;;;;;;;29.85;4.15;;;;;;;;;;5012313;28;20026;-76
2024/01/03 02:07:19;;;;;;;35.30;5.05;;;;;;;;;;5012174;28;20101;-76
2024/01/03 02:09:44;;;;;;;40.50;4.90;;;;;;;;;;5012213;28;20342;-75
2024/01/03 02:12:09;;;;;;;26.27;4.15;;;;;;;;;;5012040;28;20030;-75
2024/01/03 02:14:34;;;;;;;33.33;5.32;;;;;;;;;;5012260;28;20390;-76
2024/01/03 02:17:00;;;;;;;25.13;4.93;;;;;;;;;;5011933;28;20374;-75
2024/01/03 02:19:25;;;;;;;28.90;4.60;;;;;;;;;;5011831;28;20714;-76
2024/01/03 02:21:50;;;;;;;27.77;4.65;;;;;;;;;;5011743;28;20076;-80
2024/01/03 02:24:15;;;;;;;36.90;4.78;;;;;;;;;;5010583;28;20022;-76
2024/01/03 02:26:41;;;;;;;29.45;3.65;;;;;;;;;;5011717;28;20029;-76
2024/01/03 02:29:06;;;;;;;28.98;5.30;;;;;;;;;;5012138;28;20339;-77
2024/01/03 02:31:31;;;;;;;32.30;4.43;;;;;;;;;;5011695;28;20026;-76
2024/01/03 02:33:57;;;;;;;31.35;4.38;;;;;;;;;;5011707;28;20054;-77
2024/01/03 02:36:22;;;;;;;22.88;4.20;;;;;;;;;;5012020;28;20444;-77
2024/01/03 02:38:50;;;;;;;24.90;4.05;;;;;;;;;;5011640;28;20026;-76
2024/01/03 02:41:15;;;;;;;29.02;4.90;;;;;;;;;;5012108;28;20104;-76
2024/01/03 02:43:40;;;;;;;32.97;4.20;;;;;;;;;;5012087;28;20034;-76
2024/01/03 02:46:05;;;;;;;31.48;5.07;;;;;;;;;;5011388;28;20073;-76
2024/01/03 02:48:31;;;;;;;29.33;4.27;;;;;;;;;;5012026;28;20030;-76
2024/01/03 02:50:56;;;;;;;30.58;5.07;;;;;;;;;;5010383;28;20852;-77
2024/01/03 02:53:21;;;;;;;26.03;4.20;;;;;;;;;;5013093;28;20382;-77
2024/01/03 02:55:46;;;;;;;31.08;4.72;;;;;;;;;;5014843;28;20268;-77
2024/01/03 02:58:12;;;;;;;25.58;3.60;;;;;;;;;;5014623;28;20085;-77
2024/01/03 03:00:39;;;;;;;31.30;4.97;;;;;;;;;;5015188;28;20411;-76
2024/01/03 03:03:04;;;;;;;30.90;4.50;;;;;;;;;;5013687;28;20042;-79
2024/01/03 03:05:29;;;;;;;30.13;4.30;;;;;;;;;;5013816;28;20079;-79
2024/01/03 03:07:55;;;;;;;21.08;3.50;;;;;;;;;;5011926;28;20137;-79
2024/01/03 03:10:20;;;;;;;25.08;3.92;;;;;;;;;;5013698;28;20030;-79
2024/01/03 03:12:45;;;;;;;31.50;3.92;;;;;;;;;;5013295;28;20117;-79
2024/01/03 03:15:11;;;;;;;23.85;4.40;;;;;;;;;;5011861;28;20026;-80
2024/01/03 03:17:36;;;;;;;31.08;4.03;;;;;;;;;;5013916;28;20022;-79
2024/01/03 03:20:05;;;;;;;35.70;5.45;;;;;;;;;;5013080;28;20018;-79
2024/01/03 03:22:30;;;;;;;34.47;4.60;;;;;;;;;;5013046;28;20386;-79
2024/01/03 03:24:55;;;;;;;28.55;3.92;;;;;;;;;;5013301;28;20049;-80
2024/01/03 03:27:21;;;;;;;34.13;4.85;;;;;;;;;;5012933;28;20029;-80
2024/01/03 03:29:46;;;;;;;26.98;4.20;;;;;;;;;;5013066;28;20435;-79
2024/01/03 03:32:11;;;;;;;30.03;4.37;;;;;;;;;;5013171;28;20030;-78
2024/01/03 03:34:36;;;;;;;29.42;4.15;;;;;;;;;;5012884;28;20269;-79
2024/01/03 03:37:05;;;;;;;23.40;4.10;;;;;;;;;;5013208;28;20021;-79
2024/01/03 03:39:30;;;;;;;21.58;4.57;;;;;;;;;;5012737;28;20010;-79
2024/01/03 03:41:55;;;;;;;27.65;3.97;;;;;;;;;;5012636;28;20033;-78
2024/01/03 03:44:20;;;;;;;30.70;5.00;;;;;;;;;;5013072;28;20022;-78
2024/01/03 03:46:46;;;;;;;36.53;4.13;;;;;;;;;;5012849;28;20447;-79
2024/01/03 03:49:11;;;;;;;30.73;4.37;;;;;;;;;;5012782;28;20121;-79
2024/01/03 03:51:36;;;;;;;24.03;3.67;;;;;;;;;;5012823;28;20340;-79
2024/01/03 03:54:01;;;;;;;30.00;4.20;;;;;;;;;;5012235;28;20708;-78
2024/01/03 03:56:29;;;;;;;40.67;4.95;;;;;;;;;;5012628;28;20253;-80
2024/01/03 03:58:54;;;;;;;33.67;4.75;;;;;;;;;;5012641;28;20116;-79
2024/01/03 04:01:19;;;;;;;26.77;4.38;;;;;;;;;;5012523;28;20029;-79
2024/01/03 04:03:45;;;;;;;26.92;4.18;;;;;;;;;;5011470;28;20351;-79
2024/01/03 04:06:12;;;;;;;25.38;3.80;;;;;;;;;;5012032;28;20076;-80
2024/01/03 04:08:37;;;;;;;28.83;4.47;;;;;;;;;;5012377;28;20018;-79
2024/01/03 04:11:03;;;;;;;27.55;4.68;;;;;;;;;;5010892;28;20062;-79
2024/01/03 04:13:29;;;;;;;26.10;4.13;;;;;;;;;;5012179;28;20395;-78
2024/01/03 04:15:54;;;;;;;33.30;4.30;;;;;;;;;;5010860;28;20044;-80
2024/01/03 04:18:19;;;;;;;32.40;4.40;;;;;;;;;;5012307;28;20025;-78
2024/01/03 04:20:44;;;;;;;37.97;5.13;;;;;;;;;;5012194;28;20031;-78
2024/01/03 04:23:10;;;;;;;35.25;4.88;;;;;;;;;;5010844;28;20269;-78
2024/01/03 04:25:35;;;;;;;30.67;4.60;;;;;;;;;;5012106;28;20036;-78
2024/01/03 04:28:01;;;;;;;26.73;4.65;;;;;;;;;;5012104;28;20252;-78
2024/01/03 04:30:26;;;;;;;34.75;4.82;;;;;;;;;;5010656;28;20032;-78
2024/01/03 04:32:51;;;;;;;33.33;5.00;;;;;;;;;;5010580;28;20423;-80
2024/01/03 04:35:17;;;;;;;41.93;5.27;;;;;;;;;;5012629;28;20045;-79
2024/01/03 04:37:42;;;;;;;31.10;4.43;;;;;;;;;;5012029;28;20253;-78
2024/01/03 04:40:08;;;;;;;40.70;5.60;;;;;;;;;;5011455;28;20272;-78
2024/01/03 04:42:33;;;;;;;35.60;5.97;;;;;;;;;;5012086;28;20271;-79
2024/01/03 04:44:58;;;;;;;33.33;5.72;;;;;;;;;;5011905;28;20018;-78
2024/01/03 04:47:24;;;;;;;41.13;5.80;;;;;;;;;;5011647;28;20029;-77
2024/01/03 04:49:49;;;;;;;46.20;6.78;;;;;;;;;;5011985;28;20344;-79
2024/01/03 04:52:14;;;;;;;37.85;6.50;;;;;;;;;;5009937;28;20029;-79
2024/01/03 04:54:39;;;;;;;36.33;5.15;;;;;;;;;;5011660;28;20111;-77
2024/01/03 04:57:05;;;;;;;56.05;7.68;;;;;;;;;;5011459;28;20068;-79
2024/01/03 04:59:30;;;;;;;48.22;7.10;;;;;;;;;;5011500;28;20113;-79
2024/01/03 05:01:55;;;;;;;33.58;5.10;;;;;;;;;;5011800;28;20458;-81
2024/01/03 05:04:20;;;;;;;43.83;6.13;;;;;;;;;;5010236;28;20454;-78
2024/01/03 05:06:45;;;;;;;37.85;5.80;;;;;;;;;;5011225;28;20022;-79
2024/01/03 05:09:11;;;;;;;48.17;6.90;;;;;;;;;;5011752;28;20033;-79
2024/01/03 05:11:36;;;;;;;45.78;6.05;;;;;;;;;;5011301;28;20034;-81
2024/01/03 05:14:01;;;;;;;43.50;6.60;;;;;;;;;;5011225;28;20045;-79
2024/01/03 05:16:26;;;;;;;48.42;6.68;;;;;;;;;;5010775;28;20022;-80
2024/01/03 05:18:52;;;;;;;39.92;5.22;;;;;;;;;;5010268;28;20411;-79
2024/01/03 05:21:17;;;;;;;49.08;6.88;;;;;;;;;;5010418;28;20038;-79
2024/01/03 05:23:42;;;;;;;47.90;5.93;;;;;;;;;;5010996;28;20022;-79
2024/01/03 05:26:07;;;;;;;38.60;5.45;;;;;;;;;;5010981;28;20061;-80
2024/01/03 05:28:33;;;;;;;36.95;5.10;;;;;;;;;;5011564;28;20022;-79
2024/01/03 05:30:58;;;;;;;52.07;6.97;;;;;;;;;;5011221;28;20082;-78
2024/01/03 05:33:23;;;;;;;52.70;6.20;;;;;;;;;;5010744;28;20256;-79
2024/01/03 05:35:49;;;;;;;39.97;6.22;;;;;;;;;;5011146;28;20025;-79
2024/01/03 05:38:14;;;;;;;40.08;5.30;;;;;;;;;;5011285;28;20455;-79
2024/01/03 05:40:39;;;;;;;33.38;5.30;;;;;;;;;;5010961;28;20033;-78
2024/01/03 05:43:04;;;;;;;37.42;4.18;;;;;;;;;;5010782;28;20483;-79
2024/01/03 05:45:30;;;;;;;22.17;3.88;;;;;;;;;;5010749;28;20427;-79
2024/01/03 05:47:55;;;;;;;31.37;4.80;;;;;;;;;;5011043;28;20053;-80
2024/01/03 05:50:20;;;;;;;34.13;4.55;;;;;;;;;;5010514;28;20348;-79
2024/01/03 05:52:45;;;;;;;31.07;4.20;;;;;;;;;;5009302;28;20026;-79
2024/01/03 05:55:11;;;;;;;27.10;3.80;;;;;;;;;;5011304;28;20268;-79
2024/01/03 05:57:36;;;;;;;29.83;3.67;;;;;;;;;;5010747;28;20081;-78
2024/01/03 06:00:02;;;;;;;24.33;3.60;;;;;;;;;;5010771;28;20447;-78
2024/01/03 06:02:28;;;;;;;25.45;3.90;;;;;;;;;;5010930;28;20037;-77
2024/01/03 06:04:53;;;;;;;31.30;3.58;;;;;;;;;;5010973;28;20446;-79
2024/01/03 06:07:18;;;;;;;35.92;4.15;;;;;;;;;;5010837;28;20093;-78
2024/01/03 06:09:45;;;;;;;28.42;3.80;;;;;;;;;;5010670;28;20026;-77
2024/01/03 06:12:10;;;;;;;27.88;4.55;;;;;;;;;;5010561;28;20036;-77
2024/01/03 06:14:35;;;;;;;34.17;4.55;;;;;;;;;;5010470;28;20022;-77
2024/01/03 06:17:00;;;;;;;32.17;4.00;;;;;;;;;;5010984;28;20137;-77
2024/01/03 06:19:25;;;;;;;43.58;4.63;;;;;;;;;;5010407;28;20297;-77
2024/01/03 06:21:51;;;;;;;38.80;4.07;;;;;;;;;;5009094;28;20423;-77
2024/01/03 06:24:16;;;;;;;33.63;5.00;;;;;;;;;;5010224;28;20265;-78
2024/01/03 06:26:42;;;;;;;39.72;4.80;;;;;;;;;;5011474;28;20030;-77
2024/01/03 06:29:08;;;;;;;46.45;4.82;;;;;;;;;;5014969;28;20026;-78
2024/01/03 06:31:33;;;;;;;47.22;5.07;;;;;;;;;;5014234;28;20101;-78
2024/01/03 06:33:58;;;;;;;37.35;5.00;;;;;;;;;;5014204;28;20251;-76
2024/01/03 06:36:24;;;;;;;41.13;4.95;;;;;;;;;;5014121;28;20101;-78
2024/01/03 06:38:50;;;;;;;29.47;4.17;;;;;;;;;;5013974;28;20048;-77
2024/01/03 06:41:15;;;;;;;47.58;5.65;;;;;;;;;;5014708;28;20747;-78
2024/01/03 06:43:40;;;;;;;35.85;5.15;;;;;;;;;;5014841;28;20133;-78
2024/01/03 06:46:06;;;;;;;35.83;4.70;;;;;;;;;;5012767;28;20022;-78
2024/01/03 06:48:31;;;;;;;32.45;4.80;;;;;;;;;;5013964;28;20370;-78
2024/01/03 06:50:56;;;;;;;34.13;4.95;;;;;;;;;;5014016;28;20454;-77
2024/01/03 06:53:21;;;;;;;25.17;4.28;;;;;;;;;;5014127;28;20442;-77
2024/01/03 06:55:47;;;;;;;24.30;3.42;;;;;;;;;;5013909;28;20181;-76
2024/01/03 06:58:12;;;;;;;25.03;4.00;;;;;;;;;;5012039;28;20129;-78
2024/01/03 07:00:37;;;;;;;27.35;3.28;;;;;;;;;;5013220;28;20265;-76
2024/01/03 07:03:03;;;;;;;31.30;3.60;;;;;;;;;;5012199;28;20061;-79
2024/01/03 07:05:28;;;;;;;23.73;3.10;;;;;;;;;;5013573;28;20175;-78
2024/01/03 07:07:53;;;;;;;21.38;3.38;;;;;;;;;;5013191;28;20087;-80
2024/01/03 07:10:19;;;;;;;19.52;2.97;;;;;;;;;;5011422;28;20438;-78
2024/01/03 07:12:44;;;;;;;30.55;3.75;;;;;;;;;;5013743;28;20102;-78
2024/01/03 07:15:09;;;;;;;25.10;3.38;;;;;;;;;;5012176;28;20022;-81
2024/01/03 07:17:34;;;;;;;31.92;3.75;;;;;;;;;;5012179;28;20086;-77
2024/01/03 07:20:00;;;;;;;29.23;3.10;;;;;;;;;;5013848;28;20107;-79
2024/01/03 07:22:25;;;;;;;37.65;4.15;;;;;;;;;;5011805;28;20076;-81
2024/01/03 07:24:50;;;;;;;23.38;3.22;;;;;;;;;;5011850;28;20014;-80
2024/01/03 07:27:15;;;;;;;22.48;3.15;;;;;;;;;;5012801;28;20355;-80
2024/01/03 07:29:41;;;;;;;26.35;3.08;;;;;;;;;;5012984;28;20021;-77
2024/01/03 07:32:07;;;;;;;22.50;2.90;;;;;;;;;;5013265;28;20342;-79
2024/01/03 07:34:35;;;;;;;20.92;2.70;;;;;;;;;;5012751;28;20042;-76
2024/01/03 07:37:00;;;;;;;24.73;3.47;;;;;;;;;;5011261;28;20029;-78
2024/01/03 07:39:25;;;;;;;23.92;3.05;;;;;;;;;;5012219;28;20327;-78
2024/01/03 07:41:51;;;;;;;18.67;3.42;;;;;;;;;;5012710;28;20030;-78
2024/01/03 07:44:16;;;;;;;19.15;2.53;;;;;;;;;;5013011;28;20014;-78
2024/01/03 07:46:41;;;;;;;25.83;3.80;;;;;;;;;;5012505;28;20030;-80
2024/01/03 07:49:06;;;;;;;29.98;3.35;;;;;;;;;;5012869;28;20014;-80
2024/01/03 07:51:34;;;;;;;25.23;3.30;;;;;;;;;;5011224;28;20464;-79
2024/01/03 07:54:00;;;;;;;26.10;4.05;;;;;;;;;;5012604;28;20026;-79
2024/01/03 07:56:25;;;;;;;22.65;3.78;;;;;;;;;;5012617;28;20032;-82
2024/01/03 07:58:50;;;;;;;19.80;3.40;;;;;;;;;;5011372;28;20079;-79
2024/01/03 08:01:16;;;;;;;19.42;3.15;;;;;;;;;;5012651;28;20026;-83
2024/01/03 08:03:41;;;;;;;19.27;3.50;;;;;;;;;;5012397;28;20070;-84
2024/01/03 08:06:06;;;;;;;25.48;3.47;;;;;;;;;;5011174;28;20499;-83
2024/01/03 08:08:34;;;;;;;23.42;3.47;;;;;;;;;;5010810;28;20018;-80
2024/01/03 08:11:00;;;;;;;20.33;3.17;;;;;;;;;;5012151;28;20430;-82
2024/01/03 08:13:25;;;;;;;30.08;4.03;;;;;;;;;;5011019;28;20130;-81
2024/01/03 08:15:50;;;;;;;25.42;4.10;;;;;;;;;;5010878;28;20018;-84
2024/01/03 08:18:15;;;;;;;24.35;3.40;;;;;;;;;;4994454;28;20037;-80
2024/01/03 08:20:41;;;;;;;18.52;2.97;;;;;;;;;;5011993;28;20026;-81
2024/01/03 08:23:06;;;;;;;20.55;3.60;;;;;;;;;;5012298;28;20104;-79
2024/01/03 08:25:31;;;;;;;29.02;4.40;;;;;;;;;;5010862;28;20026;-79
2024/01/03 08:27:57;;;;;;;26.17;3.95;;;;;;;;;;5011036;28;20382;-79
2024/01/03 08:30:22;;;;;;;21.35;3.38;;;;;;;;;;5012180;28;20026;-82
2024/01/03 08:32:47;;;;;;;31.92;3.78;;;;;;;;;;5011727;28;20374;-79
2024/01/03 08:35:12;;;;;;;25.52;3.40;;;;;;;;;;5011161;28;20120;-81
2024/01/03 08:37:38;;;;;;;23.88;2.97;;;;;;;;;;5012234;28;20029;-83
2024/01/03 08:40:03;;;;;;;22.25;3.88;;;;;;;;;;5011924;28;20029;-80
2024/01/03 08:42:28;;;;;;;12.80;2.97;;;;;;;;;;4993802;28;20412;-80
2024/01/03 08:44:54;;;;;;;17.48;2.97;;;;;;;;;;5011758;28;20018;-79
2024/01/03 08:47:19;;;;;;;26.40;3.45;;;;;;;;;;4994033;28;20068;-83
2024/01/03 08:49:45;;;;;;;22.40;4.00;;;;;;;;;;5010021;28;20021;-84
2024/01/03 08:52:10;;;;;;;22.63;3.25;;;;;;;;;;5010791;28;20104;-81
2024/01/03 08:54:35;;;;;;;23.27;3.63;;;;;;;;;;5010093;28;20030;-82
2024/01/03 08:57:00;;;;;;;25.63;2.80;;;;;;;;;;5011538;28;20030;-84
2024/01/03 08:59:26;;;;;;;19.60;3.03;;;;;;;;;;5012242;28;20030;-85
2024/01/03 09:01:52;;;;;;;28.42;3.15;;;;;;;;;;5009953;28;20038;-82
2024/01/03 09:04:17;;;;;;;18.52;2.72;;;;;;;;;;5011447;28;20108;-82
2024/01/03 09:06:43;;;;;;;18.17;2.88;;;;;;;;;;5010107;28;20120;-84
2024/01/03 09:09:09;;;;;;;27.25;3.13;;;;;;;;;;5011453;28;20025;-82
2024/01/03 09:11:34;;;;;;;22.77;3.72;;;;;;;;;;4993163;28;20439;-82
2024/01/03 09:14:00;;;;;;;27.13;3.45;;;;;;;;;;5009316;28;20034;-82
2024/01/03 09:16:32;;;;;;;23.92;2.75;;;;;;;;;;5010954;28;20057;-82
2024/01/03 09:18:58;;;;;;;18.63;3.17;;;;;;;;;;5011523;28;20114;-83
2024/01/03 09:21:31;;;;;;;22.08;2.85;;;;;;;;;;5009903;28;20159;-84
2024/01/03 09:23:59;;;;;;;24.05;2.53;;;;;;;;;;5009344;28;20102;-83
2024/01/03 09:26:24;;;;;;;21.85;2.80;;;;;;;;;;5009600;28;20018;-82
2024/01/03 09:28:51;;;;;;;23.85;3.67;;;;;;;;;;5009403;28;20032;-80
2024/01/03 09:31:17;;;;;;;24.65;4.15;;;;;;;;;;5009458;28;20030;-81
2024/01/03 09:33:42;;;;;;;22.35;2.85;;;;;;;;;;5009391;28;20026;-79
2024/01/03 09:36:16;;;;;;;21.33;3.85;;;;;;;;;;5009458;28;20048;-82
2024/01/03 09:38:41;;;;;;;28.55;3.55;;;;;;;;;;5011191;28;20022;-81
2024/01/03 09:41:12;;;;;;;31.27;4.03;;;;;;;;;;5009799;28;20030;-81
2024/01/03 09:43:39;;;;;;;27.47;3.67;;;;;;;;;;5009931;28;20119;-86
2024/01/03 09:46:05;;;;;;;28.45;3.33;;;;;;;;;;5008833;28;20701;-84
2024/01/03 09:48:30;;;;;;;17.48;2.72;;;;;;;;;;5010088;28;20030;-83
2024/01/03 09:50:56;;;;;;;24.48;3.65;;;;;;;;;;5009087;28;20116;-81
2024/01/03 09:53:22;;;;;;;27.15;3.33;;;;;;;;;;4992890;28;20033;-81
2024/01/03 09:55:47;;;;;;;21.15;2.60;;;;;;;;;;4992877;28;20080;-80
2024/01/03 09:58:12;;;;;;;16.77;2.55;;;;;;;;;;5008996;28;20042;-80
2024/01/03 10:00:38;;;;;;;23.98;3.65;;;;;;;;;;5008980;28;20042;-85
2024/01/03 10:03:11;;;;;;;12.93;2.65;;;;;;;;;;5012320;28;20037;-83
2024/01/03 10:05:39;;;;;;;22.90;3.17;;;;;;;;;;5014820;28;20450;-82
2024/01/03 10:08:17;;;;;;;25.00;3.13;;;;;;;;;;5013108;28;20017;-85
2024/01/03 10:10:45;;;;;;;20.05;2.92;;;;;;;;;;5014653;28;20063;-83
2024/01/03 10:13:21;;;;;;;19.38;2.63;;;;;;;;;;5014775;28;20022;-83
2024/01/03 10:15:48;;;;;;;29.25;3.75;;;;;;;;;;5014618;28;20101;-84
2024/01/03 10:18:17;;;;;;;17.55;2.90;;;;;;;;;;5013297;28;20374;-81
2024/01/03 10:20:43;;;;;;;16.70;2.53;;;;;;;;;;5013119;28;20030;-84
2024/01/03 10:23:10;;;;;;;27.40;2.72;;;;;;;;;;5013191;28;20129;-83
2024/01/03 10:25:39;;;;;;;21.73;2.95;;;;;;;;;;5014642;28;20022;-83
2024/01/03 10:28:13;;;;;;;20.02;3.17;;;;;;;;;;5014423;28;20025;-82
2024/01/03 10:30:39;;;;;;;24.45;3.53;;;;;;;;;;5013012;28;20322;-86
2024/01/03 10:33:10;;;;;;;23.42;3.33;;;;;;;;;;5014669;28;20113;-81
2024/01/03 10:35:36;;;;;;;25.90;3.55;;;;;;;;;;5015080;28;20096;-84
2024/01/03 10:38:02;;;;;;;18.02;2.80;;;;;;;;;;5012944;28;20092;-83
2024/01/03 10:40:53;;;;;;;25.60;3.08;;;;;;;;;;5013866;28;20028;-82
2024/01/03 10:43:18;;;;;;;21.42;2.70;;;;;;;;;;5012994;28;20037;-83
2024/01/03 10:45:46;;;;;;;13.80;2.70;;;;;;;;;;5013329;28;20141;-85
2024/01/03 10:48:19;;;;;;;19.58;3.08;;;;;;;;;;5014242;28;20096;-83
2024/01/03 10:50:50;;;;;;;22.30;3.05;;;;;;;;;;5014304;28;20477;-83
2024/01/03 10:53:16;;;;;;;25.90;2.83;;;;;;;;;;5013059;28;20102;-83
2024/01/03 10:55:44;;;;;;;20.50;2.65;;;;;;;;;;5012999;28;20109;-82
2024/01/03 10:58:12;;;;;;;27.10;4.65;;;;;;;;;;5012815;28;20050;-83
2024/01/03 11:00:49;;;;;;;25.05;3.38;;;;;;;;;;5013058;28;20098;-83
2024/01/03 11:03:17;;;;;;;21.20;3.25;;;;;;;;;;5013819;28;20022;-84
2024/01/03 11:06:06;;;;;;;19.45;2.85;;;;;;;;;;5012380;28;20026;-83
2024/01/03 11:08:40;;;;;;;22.52;3.63;;;;;;;;;;5014458;28;20017;-82
2024/01/03 11:11:05;;;;;;;21.38;4.63;;;;;;;;;;5014099;28;20022;-82
2024/01/03 11:13:34;;;;;;;22.13;3.75;;;;;;;;;;5013076;28;20034;-82
2024/01/03 11:16:00;;;;;;;21.80;3.03;;;;;;;;;;5013800;28;20215;-82
2024/01/03 11:18:41;;;;;;;22.63;3.15;;;;;;;;;;5013549;28;20466;-83
2024/01/03 11:21:25;;;;;;;25.83;3.58;;;;;;;;;;5013583;28;20117;-84
2024/01/03 11:23:50;;;;;;;25.00;3.85;;;;;;;;;;5013140;28;20018;-84
2024/01/03 11:26:15;;;;;;;23.02;4.20;;;;;;;;;;5013402;28;20430;-82
2024/01/03 11:28:47;;;;;;;23.30;3.90;;;;;;;;;;5012624;28;20022;-83
2024/01/03 11:31:12;;;;;;;22.65;3.72;;;;;;;;;;5013590;28;20076;-82
2024/01/03 11:33:38;;;;;;;26.23;3.60;;;;;;;;;;5014876;28;20041;-82
2024/01/03 11:36:04;;;;;;;28.65;5.30;;;;;;;;;;5012056;28;20439;-82
2024/01/03 11:38:44;;;;;;;28.27;3.95;;;;;;;;;;5011593;28;20355;-81
2024/01/03 11:41:14;;;;;;;25.20;3.20;;;;;;;;;;5011690;28;20084;-83
2024/01/03 11:43:42;;;;;;;21.33;3.33;;;;;;;;;;5011838;28;20017;-81
2024/01/03 11:46:11;;;;;;;30.58;5.13;;;;;;;;;;5012308;28;20392;-80
2024/01/03 11:48:38;;;;;;;32.58;4.53;;;;;;;;;;5013533;28;20022;-82
2024/01/03 11:51:19;;;;;;;25.92;3.92;;;;;;;;;;5011814;28;20167;-80
2024/01/03 11:53:45;;;;;;;29.58;4.18;;;;;;;;;;4995367;28;20117;-81
2024/01/03 11:56:10;;;;;;;28.02;4.13;;;;;;;;;;5011884;28;20419;-79
2024/01/03 11:58:38;;;;;;;30.73;4.57;;;;;;;;;;5013141;28;20129;-80
2024/01/03 12:01:07;;;;;;;47.25;5.53;;;;;;;;;;5012949;28;20079;-80
2024/01/03 12:03:32;;;;;;;40.28;5.18;;;;;;;;;;5011228;28;20021;-80
2024/01/03 12:05:58;;;;;;;48.90;6.75;;;;;;;;;;5011875;28;20128;-79
2024/01/03 12:08:23;;;;;;;47.35;5.90;;;;;;;;;;5012838;28;20022;-79
2024/01/03 12:10:48;;;;;;;47.53;5.43;;;;;;;;;;5011347;28;20461;-79
2024/01/03 12:13:14;;;;;;;50.80;5.63;;;;;;;;;;5011414;28;20038;-79
2024/01/03 12:15:39;;;;;;;43.92;5.97;;;;;;;;;;5012387;28;20327;-80
2024/01/03 12:18:05;;;;;;;41.55;5.40;;;;;;;;;;5011113;28;20426;-79
2024/01/03 12:20:33;;;;;;;51.33;6.05;;;;;;;;;;5012731;28;20068;-79
2024/01/03 12:23:14;;;;;;;39.60;5.70;;;;;;;;;;5012270;28;20486;-79
2024/01/03 12:25:40;;;;;;;35.10;5.78;;;;;;;;;;5011096;28;20029;-81
2024/01/03 12:28:05;;;;;;;47.70;5.55;;;;;;;;;;5011776;28;20125;-81
2024/01/03 12:30:30;;;;;;;46.00;6.50;;;;;;;;;;5010493;28;20052;-79
2024/01/03 12:33:08;;;;;;;36.70;5.43;;;;;;;;;;5012187;28;20428;-80
2024/01/03 12:35:34;;;;;;;35.17;4.97;;;;;;;;;;5012404;28;20022;-81
2024/01/03 12:37:59;;;;;;;40.17;4.70;;;;;;;;;;5012341;28;20068;-82
2024/01/03 12:40:24;;;;;;;45.10;5.43;;;;;;;;;;5010689;28;20034;-81
2024/01/03 12:42:50;;;;;;;46.58;5.88;;;;;;;;;;5010360;28;20018;-80
2024/01/03 12:45:15;;;;;;;37.83;5.15;;;;;;;;;;5010876;28;20319;-81
2024/01/03 12:47:40;;;;;;;40.28;5.60;;;;;;;;;;5011370;28;20022;-81
2024/01/03 12:50:07;;;;;;;35.47;4.82;;;;;;;;;;5011006;28;20091;-82
2024/01/03 12:52:34;;;;;;;34.30;4.90;;;;;;;;;;5011974;28;20030;-81
2024/01/03 12:54:59;;;;;;;41.40;5.45;;;;;;;;;;5011907;28;20037;-81
2024/01/03 12:57:25;;;;;;;40.35;5.43;;;;;;;;;;5012250;28;20045;-81
2024/01/03 12:59:50;;;;;;;39.97;5.03;;;;;;;;;;5010547;28;20395;-81
2024/01/03 13:02:17;;;;;;;42.05;6.43;;;;;;;;;;5012003;28;20030;-82
2024/01/03 13:04:43;;;;;;;41.05;5.07;;;;;;;;;;5010427;28;20042;-81
2024/01/03 13:07:08;;;;;;;45.67;5.88;;;;;;;;;;5012228;28;20025;-79
2024/01/03 13:09:33;;;;;;;28.73;4.93;;;;;;;;;;5011780;28;20022;-81
2024/01/03 13:11:59;;;;;;;39.05;5.63;;;;;;;;;;5011785;28;20030;-82
2024/01/03 13:14:24;;;;;;;38.60;6.03;;;;;;;;;;5011489;28;20446;-81
2024/01/03 13:16:49;;;;;;;37.75;5.78;;;;;;;;;;5010359;28;20422;-81
2024/01/03 13:19:15;;;;;;;42.28;6.78;;;;;;;;;;5011588;28;20356;-81
2024/01/03 13:21:40;;;;;;;37.28;4.65;;;;;;;;;;5008887;28;20061;-81
2024/01/03 13:24:06;;;;;;;30.83;4.78;;;;;;;;;;5010177;28;20026;-81
2024/01/03 13:26:31;;;;;;;40.20;6.35;;;;;;;;;;5011730;28;20061;-80
2024/01/03 13:28:56;;;;;;;29.45;4.75;;;;;;;;;;5009916;28;20018;-81
2024/01/03 13:31:21;;;;;;;37.55;5.25;;;;;;;;;;5011191;28;20030;-82
2024/01/03 13:33:46;;;;;;;34.77;5.23;;;;;;;;;;5011485;28;20087;-81
2024/01/03 13:36:12;;;;;;;36.80;5.43;;;;;;;;;;5010701;28;20261;-79
2024/01/03 13:38:37;;;;;;;40.38;5.20;;;;;;;;;;5009757;28;20461;-79
2024/01/03 13:41:05;;;;;;;34.70;5.93;;;;;;;;;;5011398;28;20030;-79
2024/01/03 13:43:30;;;;;;;43.70;6.05;;;;;;;;;;5011213;28;20022;-79
2024/01/03 13:45:55;;;;;;;30.33;4.97;;;;;;;;;;5010808;28;20032;-79
2024/01/03 13:48:21;;;;;;;44.00;5.70;;;;;;;;;;5009786;28;20080;-79
2024/01/03 13:50:46;;;;;;;33.55;5.75;;;;;;;;;;5009501;28;20387;-79
2024/01/03 13:53:12;;;;;;;38.67;5.70;;;;;;;;;;5010833;28;20072;-79
2024/01/03 13:55:37;;;;;;;47.53;6.55;;;;;;;;;;5009406;28;20462;-79
2024/01/03 13:58:02;;;;;;;40.42;5.97;;;;;;;;;;5008914;28;20053;-80
2024/01/03 14:00:28;;;;;;;46.28;8.18;;;;;;;;;;5009318;28;20430;-77
2024/01/03 14:02:54;;;;;;;51.15;7.18;;;;;;;;;;5010913;28;20105;-78
2024/01/03 14:05:20;;;;;;;33.10;6.28;;;;;;;;;;5010485;28;20342;-78
2024/01/03 14:07:45;;;;;;;41.97;5.80;;;;;;;;;;5010780;28;20044;-80
2024/01/03 14:10:11;;;;;;;31.90;5.13;;;;;;;;;;5010787;28;20109;-79
2024/01/03 14:12:36;;;;;;;39.08;4.47;;;;;;;;;;5010585;28;20038;-80
2024/01/03 14:15:02;;;;;;;30.27;4.13;;;;;;;;;;5010950;28;20036;-80
2024/01/03 14:17:27;;;;;;;22.15;3.67;;;;;;;;;;5008832;28;20018;-80
2024/01/03 14:19:53;;;;;;;22.97;3.40;;;;;;;;;;5009226;28;20458;-80
2024/01/03 14:22:18;;;;;;;26.23;3.30;;;;;;;;;;5009303;28;20272;-79
2024/01/03 14:24:45;;;;;;;24.48;4.03;;;;;;;;;;5010375;28;20024;-79